sensor_id;sensor_type;location;lat;lon;timestamp;P1;durP1;ratioP1;P2;durP2;ratioP2
11313;SDS011;5712;48.858;9.206;2023-08-06T00:00:27;14.23;;;10.50;;
11313;SDS011;5712;48.858;9.206;2023-08-06T00:02:54;12.17;;;9.40;;
11313;SDS011;5712;48.858;9.206;2023-08-06T00:05:20;10.77;;;8.67;;
11313;SDS011;5712;48.858;9.206;2023-08-06T00:07:48;12.20;;;9.77;;
11313;SDS011;5712;48.858;9.206;2023-08-06T00:10:17;11.40;;;9.17;;
11313;SDS011;5712;48.858;9.206;2023-08-06T00:12:48;12.27;;;10.10;;
11313;SDS011;5712;48.858;9.206;2023-08-06T00:15:25;14.00;;;10.60;;
11313;SDS011;5712;48.858;9.206;2023-08-06T00:17:51;12.63;;;9.50;;
11313;SDS011;5712;48.858;9.206;2023-08-06T00:20:18;12.07;;;9.67;;
11313;SDS011;5712;48.858;9.206;2023-08-06T00:22:45;11.43;;;9.47;;
11313;SDS011;5712;48.858;9.206;2023-08-06T00:25:13;9.67;;;7.80;;
11313;SDS011;5712;48.858;9.206;2023-08-06T00:27:39;14.20;;;9.03;;
11313;SDS011;5712;48.858;9.206;2023-08-06T00:30:06;9.80;;;8.30;;
11313;SDS011;5712;48.858;9.206;2023-08-06T00:32:33;10.30;;;8.67;;
11313;SDS011;5712;48.858;9.206;2023-08-06T00:34:59;11.50;;;8.37;;
11313;SDS011;5712;48.858;9.206;2023-08-06T00:37:26;9.43;;;8.33;;
11313;SDS011;5712;48.858;9.206;2023-08-06T00:39:52;12.00;;;9.23;;
11313;SDS011;5712;48.858;9.206;2023-08-06T00:42:20;11.67;;;8.43;;
11313;SDS011;5712;48.858;9.206;2023-08-06T00:44:47;14.10;;;9.80;;
11313;SDS011;5712;48.858;9.206;2023-08-06T00:47:14;12.37;;;9.87;;
11313;SDS011;5712;48.858;9.206;2023-08-06T00:49:41;15.13;;;11.40;;
11313;SDS011;5712;48.858;9.206;2023-08-06T00:52:08;13.10;;;9.90;;
11313;SDS011;5712;48.858;9.206;2023-08-06T00:54:34;13.57;;;10.87;;
11313;SDS011;5712;48.858;9.206;2023-08-06T00:57:02;13.67;;;11.07;;
11313;SDS011;5712;48.858;9.206;2023-08-06T00:59:32;13.00;;;10.40;;
11313;SDS011;5712;48.858;9.206;2023-08-06T01:01:59;17.63;;;12.60;;
11313;SDS011;5712;48.858;9.206;2023-08-06T01:04:25;13.80;;;11.00;;
11313;SDS011;5712;48.858;9.206;2023-08-06T01:06:53;14.13;;;11.40;;
11313;SDS011;5712;48.858;9.206;2023-08-06T01:09:30;13.90;;;10.20;;
11313;SDS011;5712;48.858;9.206;2023-08-06T01:12:04;13.97;;;10.10;;
11313;SDS011;5712;48.858;9.206;2023-08-06T01:14:41;13.87;;;10.37;;
11313;SDS011;5712;48.858;9.206;2023-08-06T01:17:14;11.23;;;9.67;;
11313;SDS011;5712;48.858;9.206;2023-08-06T01:19:41;14.10;;;9.67;;
11313;SDS011;5712;48.858;9.206;2023-08-06T01:22:09;12.63;;;10.27;;
11313;SDS011;5712;48.858;9.206;2023-08-06T01:24:35;15.70;;;10.10;;
11313;SDS011;5712;48.858;9.206;2023-08-06T01:27:03;11.37;;;8.87;;
11313;SDS011;5712;48.858;9.206;2023-08-06T01:29:35;16.87;;;11.70;;
11313;SDS011;5712;48.858;9.206;2023-08-06T01:32:08;16.07;;;12.07;;
11313;SDS011;5712;48.858;9.206;2023-08-06T01:34:37;17.73;;;13.30;;
11313;SDS011;5712;48.858;9.206;2023-08-06T01:37:06;21.47;;;14.40;;
11313;SDS011;5712;48.858;9.206;2023-08-06T01:39:38;24.23;;;15.93;;
11313;SDS011;5712;48.858;9.206;2023-08-06T01:42:06;28.10;;;17.83;;
11313;SDS011;5712;48.858;9.206;2023-08-06T01:44:33;24.30;;;15.17;;
11313;SDS011;5712;48.858;9.206;2023-08-06T01:47:00;23.27;;;15.17;;
11313;SDS011;5712;48.858;9.206;2023-08-06T01:49:26;28.13;;;16.87;;
11313;SDS011;5712;48.858;9.206;2023-08-06T01:51:53;21.33;;;14.23;;
11313;SDS011;5712;48.858;9.206;2023-08-06T01:54:19;20.20;;;14.03;;
11313;SDS011;5712;48.858;9.206;2023-08-06T01:56:49;22.57;;;15.10;;
11313;SDS011;5712;48.858;9.206;2023-08-06T01:59:15;17.27;;;11.77;;
11313;SDS011;5712;48.858;9.206;2023-08-06T02:01:42;14.43;;;9.30;;
11313;SDS011;5712;48.858;9.206;2023-08-06T02:04:08;10.63;;;8.37;;
11313;SDS011;5712;48.858;9.206;2023-08-06T02:06:35;11.57;;;8.50;;
11313;SDS011;5712;48.858;9.206;2023-08-06T02:09:01;12.53;;;8.03;;
11313;SDS011;5712;48.858;9.206;2023-08-06T02:11:28;10.43;;;7.60;;
11313;SDS011;5712;48.858;9.206;2023-08-06T02:13:56;8.63;;;7.73;;
11313;SDS011;5712;48.858;9.206;2023-08-06T02:16:22;9.90;;;7.30;;
11313;SDS011;5712;48.858;9.206;2023-08-06T02:18:48;10.47;;;7.80;;
11313;SDS011;5712;48.858;9.206;2023-08-06T02:21:15;8.30;;;6.20;;
11313;SDS011;5712;48.858;9.206;2023-08-06T02:23:41;8.60;;;5.90;;
11313;SDS011;5712;48.858;9.206;2023-08-06T02:26:08;7.57;;;5.70;;
11313;SDS011;5712;48.858;9.206;2023-08-06T02:28:36;8.43;;;5.33;;
11313;SDS011;5712;48.858;9.206;2023-08-06T02:31:03;5.77;;;4.60;;
11313;SDS011;5712;48.858;9.206;2023-08-06T02:33:31;5.67;;;5.00;;
11313;SDS011;5712;48.858;9.206;2023-08-06T02:36:01;4.93;;;4.43;;
11313;SDS011;5712;48.858;9.206;2023-08-06T02:38:28;6.47;;;4.97;;
11313;SDS011;5712;48.858;9.206;2023-08-06T02:40:55;6.47;;;4.90;;
11313;SDS011;5712;48.858;9.206;2023-08-06T02:43:21;5.83;;;4.90;;
11313;SDS011;5712;48.858;9.206;2023-08-06T02:45:48;6.50;;;4.77;;
11313;SDS011;5712;48.858;9.206;2023-08-06T02:48:15;6.10;;;4.80;;
11313;SDS011;5712;48.858;9.206;2023-08-06T02:50:43;6.17;;;5.37;;
11313;SDS011;5712;48.858;9.206;2023-08-06T02:53:09;7.40;;;5.20;;
11313;SDS011;5712;48.858;9.206;2023-08-06T02:55:36;6.20;;;4.90;;
11313;SDS011;5712;48.858;9.206;2023-08-06T02:58:02;6.67;;;4.83;;
11313;SDS011;5712;48.858;9.206;2023-08-06T03:00:29;7.57;;;4.90;;
11313;SDS011;5712;48.858;9.206;2023-08-06T03:02:55;4.83;;;4.33;;
11313;SDS011;5712;48.858;9.206;2023-08-06T03:05:23;7.40;;;5.10;;
11313;SDS011;5712;48.858;9.206;2023-08-06T03:07:50;5.67;;;4.73;;
11313;SDS011;5712;48.858;9.206;2023-08-06T03:10:16;5.07;;;4.57;;
11313;SDS011;5712;48.858;9.206;2023-08-06T03:12:43;5.60;;;4.90;;
11313;SDS011;5712;48.858;9.206;2023-08-06T03:15:09;6.90;;;5.37;;
11313;SDS011;5712;48.858;9.206;2023-08-06T03:17:36;7.43;;;6.27;;
11313;SDS011;5712;48.858;9.206;2023-08-06T03:20:03;8.63;;;7.40;;
11313;SDS011;5712;48.858;9.206;2023-08-06T03:22:31;9.57;;;7.03;;
11313;SDS011;5712;48.858;9.206;2023-08-06T03:24:58;9.27;;;7.07;;
11313;SDS011;5712;48.858;9.206;2023-08-06T03:27:24;8.77;;;6.87;;
11313;SDS011;5712;48.858;9.206;2023-08-06T03:29:51;8.10;;;6.40;;
11313;SDS011;5712;48.858;9.206;2023-08-06T03:32:17;8.23;;;6.57;;
11313;SDS011;5712;48.858;9.206;2023-08-06T03:34:44;8.60;;;6.47;;
11313;SDS011;5712;48.858;9.206;2023-08-06T03:37:10;6.67;;;5.93;;
11313;SDS011;5712;48.858;9.206;2023-08-06T03:39:38;9.47;;;7.03;;
11313;SDS011;5712;48.858;9.206;2023-08-06T03:42:05;7.60;;;5.83;;
11313;SDS011;5712;48.858;9.206;2023-08-06T03:44:31;7.83;;;6.17;;
11313;SDS011;5712;48.858;9.206;2023-08-06T03:46:58;8.77;;;6.40;;
11313;SDS011;5712;48.858;9.206;2023-08-06T03:49:24;9.70;;;5.97;;
11313;SDS011;5712;48.858;9.206;2023-08-06T03:51:51;6.83;;;5.33;;
11313;SDS011;5712;48.858;9.206;2023-08-06T03:54:17;6.23;;;5.33;;
11313;SDS011;5712;48.858;9.206;2023-08-06T03:56:45;5.83;;;5.13;;
11313;SDS011;5712;48.858;9.206;2023-08-06T03:59:12;5.90;;;5.27;;
11313;SDS011;5712;48.858;9.206;2023-08-06T04:01:38;6.00;;;4.67;;
11313;SDS011;5712;48.858;9.206;2023-08-06T04:04:05;5.77;;;4.87;;
11313;SDS011;5712;48.858;9.206;2023-08-06T04:06:31;6.73;;;4.80;;
11313;SDS011;5712;48.858;9.206;2023-08-06T04:08:58;4.50;;;4.00;;
11313;SDS011;5712;48.858;9.206;2023-08-06T04:11:24;5.63;;;4.30;;
11313;SDS011;5712;48.858;9.206;2023-08-06T04:13:52;4.73;;;4.33;;
11313;SDS011;5712;48.858;9.206;2023-08-06T04:16:19;5.17;;;4.40;;
11313;SDS011;5712;48.858;9.206;2023-08-06T04:18:46;5.67;;;4.47;;
11313;SDS011;5712;48.858;9.206;2023-08-06T04:21:12;6.50;;;4.60;;
11313;SDS011;5712;48.858;9.206;2023-08-06T04:23:39;5.70;;;4.30;;
11313;SDS011;5712;48.858;9.206;2023-08-06T04:26:05;6.37;;;4.30;;
11313;SDS011;5712;48.858;9.206;2023-08-06T04:28:31;6.60;;;4.07;;
11313;SDS011;5712;48.858;9.206;2023-08-06T04:30:59;6.23;;;4.30;;
11313;SDS011;5712;48.858;9.206;2023-08-06T04:33:26;6.17;;;4.40;;
11313;SDS011;5712;48.858;9.206;2023-08-06T04:35:57;5.40;;;4.47;;
11313;SDS011;5712;48.858;9.206;2023-08-06T04:38:24;7.53;;;4.67;;
11313;SDS011;5712;48.858;9.206;2023-08-06T04:40:51;6.80;;;4.50;;
11313;SDS011;5712;48.858;9.206;2023-08-06T04:43:17;6.73;;;3.83;;
11313;SDS011;5712;48.858;9.206;2023-08-06T04:45:47;3.30;;;3.00;;
11313;SDS011;5712;48.858;9.206;2023-08-06T04:48:15;5.73;;;3.87;;
11313;SDS011;5712;48.858;9.206;2023-08-06T04:50:43;5.83;;;3.67;;
11313;SDS011;5712;48.858;9.206;2023-08-06T04:53:10;4.97;;;3.70;;
11313;SDS011;5712;48.858;9.206;2023-08-06T04:55:36;5.60;;;3.50;;
11313;SDS011;5712;48.858;9.206;2023-08-06T04:58:03;4.00;;;2.93;;
11313;SDS011;5712;48.858;9.206;2023-08-06T05:00:30;4.73;;;2.87;;
11313;SDS011;5712;48.858;9.206;2023-08-06T05:02:56;5.57;;;3.43;;
11313;SDS011;5712;48.858;9.206;2023-08-06T05:05:25;5.63;;;3.13;;
11313;SDS011;5712;48.858;9.206;2023-08-06T05:07:53;6.50;;;3.17;;
11313;SDS011;5712;48.858;9.206;2023-08-06T05:10:20;4.57;;;2.97;;
11313;SDS011;5712;48.858;9.206;2023-08-06T05:12:47;3.90;;;3.30;;
11313;SDS011;5712;48.858;9.206;2023-08-06T05:15:14;5.23;;;3.20;;
11313;SDS011;5712;48.858;9.206;2023-08-06T05:17:40;3.83;;;2.83;;
11313;SDS011;5712;48.858;9.206;2023-08-06T05:20:07;5.03;;;3.00;;
11313;SDS011;5712;48.858;9.206;2023-08-06T05:22:35;4.60;;;3.73;;
11313;SDS011;5712;48.858;9.206;2023-08-06T05:25:02;6.17;;;3.40;;
11313;SDS011;5712;48.858;9.206;2023-08-06T05:27:28;4.80;;;3.23;;
11313;SDS011;5712;48.858;9.206;2023-08-06T05:29:55;4.90;;;3.13;;
11313;SDS011;5712;48.858;9.206;2023-08-06T05:32:22;4.53;;;3.60;;
11313;SDS011;5712;48.858;9.206;2023-08-06T05:34:48;6.80;;;3.80;;
11313;SDS011;5712;48.858;9.206;2023-08-06T05:37:15;4.93;;;3.20;;
11313;SDS011;5712;48.858;9.206;2023-08-06T05:39:43;5.63;;;3.60;;
11313;SDS011;5712;48.858;9.206;2023-08-06T05:42:09;4.63;;;3.10;;
11313;SDS011;5712;48.858;9.206;2023-08-06T05:44:36;5.13;;;2.90;;
11313;SDS011;5712;48.858;9.206;2023-08-06T05:47:02;4.90;;;3.00;;
11313;SDS011;5712;48.858;9.206;2023-08-06T05:49:29;3.67;;;2.30;;
11313;SDS011;5712;48.858;9.206;2023-08-06T05:51:56;4.07;;;2.50;;
11313;SDS011;5712;48.858;9.206;2023-08-06T05:54:22;2.97;;;2.60;;
11313;SDS011;5712;48.858;9.206;2023-08-06T05:56:50;3.50;;;2.50;;
11313;SDS011;5712;48.858;9.206;2023-08-06T05:59:17;2.50;;;2.30;;
11313;SDS011;5712;48.858;9.206;2023-08-06T06:01:43;2.47;;;2.20;;
11313;SDS011;5712;48.858;9.206;2023-08-06T06:04:10;2.60;;;2.40;;
11313;SDS011;5712;48.858;9.206;2023-08-06T06:06:36;3.57;;;1.90;;
11313;SDS011;5712;48.858;9.206;2023-08-06T06:09:03;4.53;;;2.07;;
11313;SDS011;5712;48.858;9.206;2023-08-06T06:11:29;3.10;;;1.83;;
11313;SDS011;5712;48.858;9.206;2023-08-06T06:13:57;3.90;;;2.20;;
11313;SDS011;5712;48.858;9.206;2023-08-06T06:16:23;2.93;;;1.80;;
11313;SDS011;5712;48.858;9.206;2023-08-06T06:18:50;3.70;;;1.63;;
11313;SDS011;5712;48.858;9.206;2023-08-06T06:21:17;2.13;;;1.50;;
11313;SDS011;5712;48.858;9.206;2023-08-06T06:23:43;1.23;;;1.13;;
11313;SDS011;5712;48.858;9.206;2023-08-06T06:26:10;3.47;;;1.50;;
11313;SDS011;5712;48.858;9.206;2023-08-06T06:28:36;2.23;;;1.20;;
11313;SDS011;5712;48.858;9.206;2023-08-06T06:31:04;1.43;;;0.80;;
11313;SDS011;5712;48.858;9.206;2023-08-06T06:33:31;1.43;;;0.87;;
11313;SDS011;5712;48.858;9.206;2023-08-06T06:35:57;2.27;;;1.23;;
11313;SDS011;5712;48.858;9.206;2023-08-06T06:38:24;1.00;;;0.90;;
11313;SDS011;5712;48.858;9.206;2023-08-06T06:40:54;2.50;;;1.10;;
11313;SDS011;5712;48.858;9.206;2023-08-06T06:43:20;2.83;;;1.00;;
11313;SDS011;5712;48.858;9.206;2023-08-06T06:45:47;1.47;;;0.80;;
11313;SDS011;5712;48.858;9.206;2023-08-06T06:48:19;1.20;;;0.90;;
11313;SDS011;5712;48.858;9.206;2023-08-06T06:50:46;1.43;;;0.90;;
11313;SDS011;5712;48.858;9.206;2023-08-06T06:53:13;1.53;;;0.80;;
11313;SDS011;5712;48.858;9.206;2023-08-06T06:55:40;1.63;;;0.93;;
11313;SDS011;5712;48.858;9.206;2023-08-06T06:58:06;2.97;;;0.80;;
11313;SDS011;5712;48.858;9.206;2023-08-06T07:00:35;2.23;;;0.80;;
11313;SDS011;5712;48.858;9.206;2023-08-06T07:03:01;1.40;;;0.80;;
11313;SDS011;5712;48.858;9.206;2023-08-06T07:05:29;1.63;;;0.70;;
11313;SDS011;5712;48.858;9.206;2023-08-06T07:07:56;1.27;;;0.80;;
11313;SDS011;5712;48.858;9.206;2023-08-06T07:10:22;1.23;;;0.63;;
11313;SDS011;5712;48.858;9.206;2023-08-06T07:12:49;1.13;;;0.60;;
11313;SDS011;5712;48.858;9.206;2023-08-06T07:15:15;1.20;;;0.60;;
11313;SDS011;5712;48.858;9.206;2023-08-06T07:17:43;2.73;;;0.60;;
11313;SDS011;5712;48.858;9.206;2023-08-06T07:20:09;0.60;;;0.57;;
11313;SDS011;5712;48.858;9.206;2023-08-06T07:22:37;2.50;;;0.70;;
11313;SDS011;5712;48.858;9.206;2023-08-06T07:25:04;3.97;;;1.67;;
11313;SDS011;5712;48.858;9.206;2023-08-06T07:27:31;0.97;;;0.60;;
11313;SDS011;5712;48.858;9.206;2023-08-06T07:29:58;0.63;;;0.60;;
11313;SDS011;5712;48.858;9.206;2023-08-06T07:32:25;1.13;;;0.60;;
11313;SDS011;5712;48.858;9.206;2023-08-06T07:34:52;1.03;;;0.60;;
11313;SDS011;5712;48.858;9.206;2023-08-06T07:37:24;0.63;;;0.50;;
11313;SDS011;5712;48.858;9.206;2023-08-06T07:39:54;1.43;;;0.60;;
11313;SDS011;5712;48.858;9.206;2023-08-06T07:42:21;0.90;;;0.70;;
11313;SDS011;5712;48.858;9.206;2023-08-06T07:44:49;0.40;;;0.40;;
11313;SDS011;5712;48.858;9.206;2023-08-06T07:47:17;0.90;;;0.60;;
11313;SDS011;5712;48.858;9.206;2023-08-06T07:49:44;0.50;;;0.40;;
11313;SDS011;5712;48.858;9.206;2023-08-06T07:52:10;1.33;;;0.70;;
11313;SDS011;5712;48.858;9.206;2023-08-06T07:54:37;0.93;;;0.87;;
11313;SDS011;5712;48.858;9.206;2023-08-06T07:57:05;0.43;;;0.43;;
11313;SDS011;5712;48.858;9.206;2023-08-06T07:59:32;1.47;;;0.60;;
11313;SDS011;5712;48.858;9.206;2023-08-06T08:01:59;0.50;;;0.50;;
11313;SDS011;5712;48.858;9.206;2023-08-06T08:04:26;1.63;;;0.53;;
11313;SDS011;5712;48.858;9.206;2023-08-06T08:06:53;0.70;;;0.60;;
11313;SDS011;5712;48.858;9.206;2023-08-06T08:09:19;0.40;;;0.40;;
11313;SDS011;5712;48.858;9.206;2023-08-06T08:11:46;0.50;;;0.40;;
11313;SDS011;5712;48.858;9.206;2023-08-06T08:14:14;0.40;;;0.40;;
11313;SDS011;5712;48.858;9.206;2023-08-06T08:16:40;0.60;;;0.60;;
11313;SDS011;5712;48.858;9.206;2023-08-06T08:19:07;0.40;;;0.40;;
11313;SDS011;5712;48.858;9.206;2023-08-06T08:21:33;0.40;;;0.37;;
11313;SDS011;5712;48.858;9.206;2023-08-06T08:24:00;0.40;;;0.30;;
11313;SDS011;5712;48.858;9.206;2023-08-06T08:26:27;0.30;;;0.30;;
11313;SDS011;5712;48.858;9.206;2023-08-06T08:28:53;0.60;;;0.40;;
11313;SDS011;5712;48.858;9.206;2023-08-06T08:31:21;0.30;;;0.30;;
11313;SDS011;5712;48.858;9.206;2023-08-06T08:33:48;0.40;;;0.30;;
11313;SDS011;5712;48.858;9.206;2023-08-06T08:36:14;0.30;;;0.30;;
11313;SDS011;5712;48.858;9.206;2023-08-06T08:38:41;0.30;;;0.30;;
11313;SDS011;5712;48.858;9.206;2023-08-06T08:41:09;2.23;;;0.30;;
11313;SDS011;5712;48.858;9.206;2023-08-06T08:43:36;0.60;;;0.40;;
11313;SDS011;5712;48.858;9.206;2023-08-06T08:46:03;0.40;;;0.37;;
11313;SDS011;5712;48.858;9.206;2023-08-06T08:48:33;0.20;;;0.20;;
11313;SDS011;5712;48.858;9.206;2023-08-06T08:51:00;0.97;;;0.30;;
11313;SDS011;5712;48.858;9.206;2023-08-06T08:53:28;0.30;;;0.30;;
11313;SDS011;5712;48.858;9.206;2023-08-06T08:55:54;0.20;;;0.20;;
11313;SDS011;5712;48.858;9.206;2023-08-06T08:58:21;0.10;;;0.10;;
11313;SDS011;5712;48.858;9.206;2023-08-06T09:00:48;0.20;;;0.20;;
11313;SDS011;5712;48.858;9.206;2023-08-06T09:03:15;0.30;;;0.30;;
11313;SDS011;5712;48.858;9.206;2023-08-06T09:05:44;1.17;;;0.30;;
11313;SDS011;5712;48.858;9.206;2023-08-06T09:08:12;0.90;;;0.30;;
11313;SDS011;5712;48.858;9.206;2023-08-06T09:10:43;0.50;;;0.20;;
11313;SDS011;5712;48.858;9.206;2023-08-06T09:13:10;0.10;;;0.10;;
11313;SDS011;5712;48.858;9.206;2023-08-06T09:15:37;0.20;;;0.20;;
11313;SDS011;5712;48.858;9.206;2023-08-06T09:18:08;0.10;;;0.10;;
11313;SDS011;5712;48.858;9.206;2023-08-06T09:20:38;0.10;;;0.10;;
11313;SDS011;5712;48.858;9.206;2023-08-06T09:23:09;0.23;;;0.23;;
11313;SDS011;5712;48.858;9.206;2023-08-06T09:25:37;0.47;;;0.30;;
11313;SDS011;5712;48.858;9.206;2023-08-06T09:28:06;0.93;;;0.20;;
11313;SDS011;5712;48.858;9.206;2023-08-06T09:30:33;0.10;;;0.10;;
11313;SDS011;5712;48.858;9.206;2023-08-06T09:33:01;0.67;;;0.20;;
11313;SDS011;5712;48.858;9.206;2023-08-06T09:35:28;0.30;;;0.30;;
11313;SDS011;5712;48.858;9.206;2023-08-06T09:37:55;0.73;;;0.23;;
11313;SDS011;5712;48.858;9.206;2023-08-06T09:40:25;0.77;;;0.73;;
11313;SDS011;5712;48.858;9.206;2023-08-06T09:42:53;1.03;;;0.20;;
11313;SDS011;5712;48.858;9.206;2023-08-06T09:45:20;0.40;;;0.20;;
11313;SDS011;5712;48.858;9.206;2023-08-06T09:47:47;1.13;;;0.23;;
11313;SDS011;5712;48.858;9.206;2023-08-06T09:50:15;0.10;;;0.10;;
11313;SDS011;5712;48.858;9.206;2023-08-06T09:52:43;0.20;;;0.20;;
11313;SDS011;5712;48.858;9.206;2023-08-06T09:55:10;0.50;;;0.30;;
11313;SDS011;5712;48.858;9.206;2023-08-06T09:57:39;0.97;;;0.30;;
11313;SDS011;5712;48.858;9.206;2023-08-06T10:00:07;0.30;;;0.30;;
11313;SDS011;5712;48.858;9.206;2023-08-06T10:02:35;0.30;;;0.30;;
11313;SDS011;5712;48.858;9.206;2023-08-06T10:05:02;0.30;;;0.30;;
11313;SDS011;5712;48.858;9.206;2023-08-06T10:07:29;0.67;;;0.30;;
11313;SDS011;5712;48.858;9.206;2023-08-06T10:09:56;0.20;;;0.20;;
11313;SDS011;5712;48.858;9.206;2023-08-06T10:12:23;0.43;;;0.30;;
11313;SDS011;5712;48.858;9.206;2023-08-06T10:14:52;0.30;;;0.30;;
11313;SDS011;5712;48.858;9.206;2023-08-06T10:17:20;1.00;;;0.40;;
11313;SDS011;5712;48.858;9.206;2023-08-06T10:19:48;0.20;;;0.20;;
11313;SDS011;5712;48.858;9.206;2023-08-06T10:22:16;0.37;;;0.30;;
11313;SDS011;5712;48.858;9.206;2023-08-06T10:24:47;0.20;;;0.20;;
11313;SDS011;5712;48.858;9.206;2023-08-06T10:27:19;0.30;;;0.30;;
11313;SDS011;5712;48.858;9.206;2023-08-06T10:29:46;0.20;;;0.20;;
11313;SDS011;5712;48.858;9.206;2023-08-06T10:32:14;0.40;;;0.40;;
11313;SDS011;5712;48.858;9.206;2023-08-06T10:34:56;0.40;;;0.20;;
11313;SDS011;5712;48.858;9.206;2023-08-06T10:37:24;0.20;;;0.20;;
11313;SDS011;5712;48.858;9.206;2023-08-06T10:40:00;1.03;;;0.37;;
11313;SDS011;5712;48.858;9.206;2023-08-06T10:42:27;0.60;;;0.53;;
11313;SDS011;5712;48.858;9.206;2023-08-06T10:47:41;0.17;;;0.17;;
11313;SDS011;5712;48.858;9.206;2023-08-06T10:50:10;0.67;;;0.30;;
11313;SDS011;5712;48.858;9.206;2023-08-06T10:52:41;0.67;;;0.27;;
11313;SDS011;5712;48.858;9.206;2023-08-06T10:55:08;1.70;;;0.40;;
11313;SDS011;5712;48.858;9.206;2023-08-06T10:57:35;0.40;;;0.40;;
11313;SDS011;5712;48.858;9.206;2023-08-06T11:00:03;1.07;;;0.20;;
11313;SDS011;5712;48.858;9.206;2023-08-06T11:02:34;0.20;;;0.20;;
11313;SDS011;5712;48.858;9.206;2023-08-06T11:05:06;0.30;;;0.30;;
11313;SDS011;5712;48.858;9.206;2023-08-06T11:07:33;0.30;;;0.30;;
11313;SDS011;5712;48.858;9.206;2023-08-06T11:10:01;0.40;;;0.40;;
11313;SDS011;5712;48.858;9.206;2023-08-06T11:12:28;0.63;;;0.40;;
11313;SDS011;5712;48.858;9.206;2023-08-06T11:14:55;1.40;;;0.47;;
11313;SDS011;5712;48.858;9.206;2023-08-06T11:17:22;1.50;;;0.67;;
11313;SDS011;5712;48.858;9.206;2023-08-06T11:19:49;1.73;;;0.60;;
11313;SDS011;5712;48.858;9.206;2023-08-06T11:22:17;1.20;;;0.77;;
11313;SDS011;5712;48.858;9.206;2023-08-06T11:24:44;0.83;;;0.50;;
11313;SDS011;5712;48.858;9.206;2023-08-06T11:27:11;0.70;;;0.70;;
11313;SDS011;5712;48.858;9.206;2023-08-06T11:29:39;1.47;;;0.70;;
11313;SDS011;5712;48.858;9.206;2023-08-06T11:32:06;1.00;;;0.70;;
11313;SDS011;5712;48.858;9.206;2023-08-06T11:34:33;0.80;;;0.80;;
11313;SDS011;5712;48.858;9.206;2023-08-06T11:36:59;0.87;;;0.63;;
11313;SDS011;5712;48.858;9.206;2023-08-06T11:39:27;0.80;;;0.80;;
11313;SDS011;5712;48.858;9.206;2023-08-06T11:41:54;0.80;;;0.60;;
11313;SDS011;5712;48.858;9.206;2023-08-06T11:44:21;2.17;;;0.90;;
11313;SDS011;5712;48.858;9.206;2023-08-06T11:46:50;0.70;;;0.70;;
11313;SDS011;5712;48.858;9.206;2023-08-06T11:49:18;1.27;;;0.80;;
11313;SDS011;5712;48.858;9.206;2023-08-06T11:51:46;1.63;;;1.33;;
11313;SDS011;5712;48.858;9.206;2023-08-06T11:54:13;1.43;;;1.00;;
11313;SDS011;5712;48.858;9.206;2023-08-06T11:56:41;1.63;;;1.10;;
11313;SDS011;5712;48.858;9.206;2023-08-06T11:59:08;2.93;;;1.97;;
11313;SDS011;5712;48.858;9.206;2023-08-06T12:01:35;2.00;;;1.27;;
11313;SDS011;5712;48.858;9.206;2023-08-06T12:04:04;2.63;;;1.60;;
11313;SDS011;5712;48.858;9.206;2023-08-06T12:06:31;1.50;;;1.40;;
11313;SDS011;5712;48.858;9.206;2023-08-06T12:09:08;1.80;;;1.47;;
11313;SDS011;5712;48.858;9.206;2023-08-06T12:11:35;2.63;;;1.23;;
11313;SDS011;5712;48.858;9.206;2023-08-06T12:14:03;2.73;;;1.50;;
11313;SDS011;5712;48.858;9.206;2023-08-06T12:16:29;2.40;;;1.40;;
11313;SDS011;5712;48.858;9.206;2023-08-06T12:18:56;2.23;;;1.40;;
11313;SDS011;5712;48.858;9.206;2023-08-06T12:21:22;2.67;;;1.80;;
11313;SDS011;5712;48.858;9.206;2023-08-06T12:23:49;3.57;;;1.90;;
11313;SDS011;5712;48.858;9.206;2023-08-06T12:26:15;4.77;;;1.87;;
11313;SDS011;5712;48.858;9.206;2023-08-06T12:28:42;2.13;;;1.57;;
11313;SDS011;5712;48.858;9.206;2023-08-06T12:31:10;1.77;;;1.50;;
11313;SDS011;5712;48.858;9.206;2023-08-06T12:33:36;2.07;;;1.70;;
11313;SDS011;5712;48.858;9.206;2023-08-06T12:36:03;2.13;;;1.60;;
11313;SDS011;5712;48.858;9.206;2023-08-06T12:38:30;2.73;;;1.90;;
11313;SDS011;5712;48.858;9.206;2023-08-06T12:40:58;2.10;;;1.90;;
11313;SDS011;5712;48.858;9.206;2023-08-06T12:43:25;4.37;;;2.20;;
11313;SDS011;5712;48.858;9.206;2023-08-06T12:45:51;4.67;;;2.13;;
11313;SDS011;5712;48.858;9.206;2023-08-06T12:48:22;2.30;;;1.77;;
11313;SDS011;5712;48.858;9.206;2023-08-06T12:50:48;3.20;;;2.27;;
11313;SDS011;5712;48.858;9.206;2023-08-06T12:53:15;2.30;;;1.70;;
11313;SDS011;5712;48.858;9.206;2023-08-06T12:55:41;1.83;;;1.70;;
11313;SDS011;5712;48.858;9.206;2023-08-06T12:58:08;3.10;;;2.30;;
11313;SDS011;5712;48.858;9.206;2023-08-06T13:00:35;1.63;;;1.20;;
11313;SDS011;5712;48.858;9.206;2023-08-06T13:03:02;1.80;;;1.10;;
11313;SDS011;5712;48.858;9.206;2023-08-06T13:05:30;2.87;;;1.33;;
11313;SDS011;5712;48.858;9.206;2023-08-06T13:07:57;1.23;;;1.10;;
11313;SDS011;5712;48.858;9.206;2023-08-06T13:10:23;1.50;;;1.27;;
11313;SDS011;5712;48.858;9.206;2023-08-06T13:12:50;4.13;;;1.33;;
11313;SDS011;5712;48.858;9.206;2023-08-06T13:15:17;2.57;;;1.70;;
11313;SDS011;5712;48.858;9.206;2023-08-06T13:17:46;2.53;;;1.20;;
11313;SDS011;5712;48.858;9.206;2023-08-06T13:20:12;4.80;;;3.93;;
11313;SDS011;5712;48.858;9.206;2023-08-06T13:22:40;3.60;;;2.77;;
11313;SDS011;5712;48.858;9.206;2023-08-06T13:25:07;2.23;;;1.60;;
11313;SDS011;5712;48.858;9.206;2023-08-06T13:27:33;2.60;;;2.03;;
11313;SDS011;5712;48.858;9.206;2023-08-06T13:30:00;2.03;;;1.40;;
11313;SDS011;5712;48.858;9.206;2023-08-06T13:32:27;2.05;;;1.83;;
11313;SDS011;5712;48.858;9.206;2023-08-06T13:34:54;8.07;;;1.50;;
11313;SDS011;5712;48.858;9.206;2023-08-06T13:37:20;1.83;;;1.13;;
11313;SDS011;5712;48.858;9.206;2023-08-06T13:39:48;5.03;;;1.50;;
11313;SDS011;5712;48.858;9.206;2023-08-06T13:42:15;1.53;;;1.10;;
11313;SDS011;5712;48.858;9.206;2023-08-06T13:44:41;0.83;;;0.80;;
11313;SDS011;5712;48.858;9.206;2023-08-06T13:47:08;0.77;;;0.70;;
11313;SDS011;5712;48.858;9.206;2023-08-06T13:49:34;0.80;;;0.80;;
11313;SDS011;5712;48.858;9.206;2023-08-06T13:52:01;0.90;;;0.77;;
11313;SDS011;5712;48.858;9.206;2023-08-06T13:54:27;2.90;;;0.80;;
11313;SDS011;5712;48.858;9.206;2023-08-06T13:57:00;1.03;;;0.70;;
11313;SDS011;5712;48.858;9.206;2023-08-06T13:59:26;0.90;;;0.70;;
11313;SDS011;5712;48.858;9.206;2023-08-06T14:01:53;0.60;;;0.60;;
11313;SDS011;5712;48.858;9.206;2023-08-06T14:04:21;0.60;;;0.60;;
11313;SDS011;5712;48.858;9.206;2023-08-06T14:06:50;1.27;;;0.73;;
11313;SDS011;5712;48.858;9.206;2023-08-06T14:09:17;0.87;;;0.60;;
11313;SDS011;5712;48.858;9.206;2023-08-06T14:11:44;0.50;;;0.50;;
11313;SDS011;5712;48.858;9.206;2023-08-06T14:14:11;0.50;;;0.50;;
11313;SDS011;5712;48.858;9.206;2023-08-06T14:16:38;0.90;;;0.60;;
11313;SDS011;5712;48.858;9.206;2023-08-06T14:19:05;2.63;;;0.80;;
11313;SDS011;5712;48.858;9.206;2023-08-06T14:21:31;1.63;;;0.80;;
11313;SDS011;5712;48.858;9.206;2023-08-06T14:23:58;1.77;;;1.20;;
11313;SDS011;5712;48.858;9.206;2023-08-06T14:26:25;1.20;;;0.87;;
11313;SDS011;5712;48.858;9.206;2023-08-06T14:28:51;1.93;;;1.00;;
11313;SDS011;5712;48.858;9.206;2023-08-06T14:31:20;0.90;;;0.70;;
11313;SDS011;5712;48.858;9.206;2023-08-06T14:33:47;1.37;;;0.90;;
11313;SDS011;5712;48.858;9.206;2023-08-06T14:36:13;1.37;;;0.93;;
11313;SDS011;5712;48.858;9.206;2023-08-06T14:38:40;2.50;;;0.87;;
11313;SDS011;5712;48.858;9.206;2023-08-06T14:41:06;0.90;;;0.90;;
11313;SDS011;5712;48.858;9.206;2023-08-06T14:43:33;1.03;;;0.80;;
11313;SDS011;5712;48.858;9.206;2023-08-06T14:45:59;3.83;;;0.80;;
11313;SDS011;5712;48.858;9.206;2023-08-06T14:48:27;1.83;;;0.97;;
11313;SDS011;5712;48.858;9.206;2023-08-06T14:50:54;0.80;;;0.80;;
11313;SDS011;5712;48.858;9.206;2023-08-06T14:53:20;1.10;;;1.00;;
11313;SDS011;5712;48.858;9.206;2023-08-06T14:55:47;1.03;;;0.90;;
11313;SDS011;5712;48.858;9.206;2023-08-06T14:58:14;1.33;;;0.73;;
11313;SDS011;5712;48.858;9.206;2023-08-06T15:00:40;1.50;;;0.80;;